sensor_id;sensor_type;location;lat;lon;timestamp;pressure;altitude;pressure_sealevel;temperature;humidity
59939;BME280;45801;51.810;19.444;2023-03-02T00:02:34;100014.85;;;1.75;58.56
59939;BME280;45801;51.810;19.444;2023-03-02T00:05:16;100014.06;;;1.73;58.26
59939;BME280;45801;51.810;19.444;2023-03-02T00:08:00;100011.15;;;1.71;58.15
59939;BME280;45801;51.810;19.444;2023-03-02T00:11:17;100011.70;;;1.70;58.26
59939;BME280;45801;51.810;19.444;2023-03-02T00:14:28;100011.38;;;1.66;58.72
59939;BME280;45801;51.810;19.444;2023-03-02T00:16:58;100014.31;;;1.64;58.48
59939;BME280;45801;51.810;19.444;2023-03-02T00:19:29;100015.89;;;1.70;58.63
59939;BME280;45801;51.810;19.444;2023-03-02T00:22:06;100011.66;;;1.71;58.32
59939;BME280;45801;51.810;19.444;2023-03-02T00:24:56;100010.69;;;1.68;58.42
59939;BME280;45801;51.810;19.444;2023-03-02T00:27:35;100008.05;;;1.65;58.54
59939;BME280;45801;51.810;19.444;2023-03-02T00:30:23;100007.21;;;1.60;59.03
59939;BME280;45801;51.810;19.444;2023-03-02T00:32:50;100004.08;;;1.58;58.93
59939;BME280;45801;51.810;19.444;2023-03-02T00:35:19;100003.04;;;1.56;58.82
59939;BME280;45801;51.810;19.444;2023-03-02T00:37:46;100001.50;;;1.54;58.62
59939;BME280;45801;51.810;19.444;2023-03-02T00:40:13;100003.30;;;1.53;58.56
59939;BME280;45801;51.810;19.444;2023-03-02T00:42:40;100000.61;;;1.52;58.50
59939;BME280;45801;51.810;19.444;2023-03-02T00:45:07;99997.48;;;1.50;58.52
59939;BME280;45801;51.810;19.444;2023-03-02T00:47:35;99996.61;;;1.48;58.53
59939;BME280;45801;51.810;19.444;2023-03-02T00:50:04;99996.15;;;1.45;58.66
59939;BME280;45801;51.810;19.444;2023-03-02T00:52:32;99993.39;;;1.43;58.63
59939;BME280;45801;51.810;19.444;2023-03-02T00:55:02;99990.71;;;1.42;58.69
59939;BME280;45801;51.810;19.444;2023-03-02T00:57:30;99990.50;;;1.41;58.52
59939;BME280;45801;51.810;19.444;2023-03-02T00:59:57;99987.77;;;1.42;58.80
59939;BME280;45801;51.810;19.444;2023-03-02T01:02:25;99985.02;;;1.42;58.90
59939;BME280;45801;51.810;19.444;2023-03-02T01:04:53;99983.59;;;1.41;58.96
59939;BME280;45801;51.810;19.444;2023-03-02T01:07:21;99977.59;;;1.42;58.86
59939;BME280;45801;51.810;19.444;2023-03-02T01:09:54;99976.80;;;1.40;58.99
59939;BME280;45801;51.810;19.444;2023-03-02T01:12:21;99974.58;;;1.41;58.92
59939;BME280;45801;51.810;19.444;2023-03-02T01:14:50;99975.84;;;1.39;59.23
59939;BME280;45801;51.810;19.444;2023-03-02T01:17:17;99975.91;;;1.40;58.99
59939;BME280;45801;51.810;19.444;2023-03-02T01:19:46;99972.14;;;1.38;58.93
59939;BME280;45801;51.810;19.444;2023-03-02T01:22:13;99968.40;;;1.35;58.95
59939;BME280;45801;51.810;19.444;2023-03-02T01:24:41;99968.80;;;1.42;59.35
59939;BME280;45801;51.810;19.444;2023-03-02T01:27:08;99967.20;;;1.49;58.78
59939;BME280;45801;51.810;19.444;2023-03-02T01:29:36;99958.14;;;1.48;58.44
59939;BME280;45801;51.810;19.444;2023-03-02T01:32:04;99955.62;;;1.43;58.54
59939;BME280;45801;51.810;19.444;2023-03-02T01:34:34;99954.12;;;1.40;59.06
59939;BME280;45801;51.810;19.444;2023-03-02T01:37:00;99953.10;;;1.38;59.20
59939;BME280;45801;51.810;19.444;2023-03-02T01:39:30;99950.80;;;1.37;59.27
59939;BME280;45801;51.810;19.444;2023-03-02T01:41:57;99953.82;;;1.36;59.18
59939;BME280;45801;51.810;19.444;2023-03-02T01:47:26;99951.40;;;1.31;59.14
59939;BME280;45801;51.810;19.444;2023-03-02T01:50:18;99946.54;;;1.24;59.44
59939;BME280;45801;51.810;19.444;2023-03-02T01:52:53;99938.70;;;1.22;59.36
59939;BME280;45801;51.810;19.444;2023-03-02T01:55:24;99931.67;;;1.20;59.41
59939;BME280;45801;51.810;19.444;2023-03-02T01:57:54;99921.11;;;1.18;59.58
59939;BME280;45801;51.810;19.444;2023-03-02T02:00:32;99919.14;;;1.17;59.74
59939;BME280;45801;51.810;19.444;2023-03-02T02:03:15;99916.83;;;1.16;59.69
59939;BME280;45801;51.810;19.444;2023-03-02T02:05:55;99913.96;;;1.16;59.99
59939;BME280;45801;51.810;19.444;2023-03-02T02:08:24;99912.45;;;1.14;59.90
59939;BME280;45801;51.810;19.444;2023-03-02T02:10:52;99913.58;;;1.13;60.02
59939;BME280;45801;51.810;19.444;2023-03-02T02:13:20;99914.96;;;1.13;60.07
59939;BME280;45801;51.810;19.444;2023-03-02T02:15:48;99916.17;;;1.14;59.81
59939;BME280;45801;51.810;19.444;2023-03-02T02:18:17;99911.53;;;1.12;59.93
59939;BME280;45801;51.810;19.444;2023-03-02T02:20:45;99907.95;;;1.10;59.81
59939;BME280;45801;51.810;19.444;2023-03-02T02:23:25;99906.02;;;1.10;60.17
59939;BME280;45801;51.810;19.444;2023-03-02T02:28:36;99904.30;;;1.08;59.92
59939;BME280;45801;51.810;19.444;2023-03-02T02:31:18;99901.38;;;1.06;59.77
59939;BME280;45801;51.810;19.444;2023-03-02T02:33:52;99900.60;;;1.05;60.04
59939;BME280;45801;51.810;19.444;2023-03-02T02:36:28;99896.63;;;1.03;60.14
59939;BME280;45801;51.810;19.444;2023-03-02T02:39:03;99897.30;;;1.03;60.05
59939;BME280;45801;51.810;19.444;2023-03-02T02:41:35;99897.44;;;1.04;59.79
59939;BME280;45801;51.810;19.444;2023-03-02T02:44:13;99891.71;;;1.04;59.99
59939;BME280;45801;51.810;19.444;2023-03-02T02:46:41;99892.01;;;1.02;60.23
59939;BME280;45801;51.810;19.444;2023-03-02T02:51:54;99890.71;;;0.97;59.88
59939;BME280;45801;51.810;19.444;2023-03-02T02:54:22;99892.27;;;0.95;60.07
59939;BME280;45801;51.810;19.444;2023-03-02T02:56:53;99886.70;;;0.93;59.80
59939;BME280;45801;51.810;19.444;2023-03-02T02:59:22;99889.58;;;0.90;59.77
59939;BME280;45801;51.810;19.444;2023-03-02T03:01:51;99887.80;;;0.88;60.05
59939;BME280;45801;51.810;19.444;2023-03-02T03:04:27;99885.58;;;0.86;60.01
59939;BME280;45801;51.810;19.444;2023-03-02T03:07:01;99883.38;;;0.84;60.35
59939;BME280;45801;51.810;19.444;2023-03-02T03:09:29;99882.58;;;0.85;60.40
59939;BME280;45801;51.810;19.444;2023-03-02T03:12:03;99880.41;;;0.86;60.61
59939;BME280;45801;51.810;19.444;2023-03-02T03:14:39;99881.11;;;0.86;60.42
59939;BME280;45801;51.810;19.444;2023-03-02T03:17:33;99881.42;;;0.84;60.09
59939;BME280;45801;51.810;19.444;2023-03-02T03:20:00;99881.89;;;0.82;60.18
59939;BME280;45801;51.810;19.444;2023-03-02T03:22:37;99883.15;;;0.80;60.42
59939;BME280;45801;51.810;19.444;2023-03-02T03:25:09;99881.91;;;0.80;60.47
59939;BME280;45801;51.810;19.444;2023-03-02T03:27:42;99878.84;;;0.80;60.30
59939;BME280;45801;51.810;19.444;2023-03-02T03:30:13;99877.51;;;0.79;60.02
59939;BME280;45801;51.810;19.444;2023-03-02T03:32:49;99876.95;;;0.77;60.26
59939;BME280;45801;51.810;19.444;2023-03-02T03:35:19;99875.85;;;0.74;60.12
59939;BME280;45801;51.810;19.444;2023-03-02T03:38:02;99876.86;;;0.74;60.18
59939;BME280;45801;51.810;19.444;2023-03-02T03:40:49;99877.41;;;0.72;60.42
59939;BME280;45801;51.810;19.444;2023-03-02T03:43:19;99878.75;;;0.72;60.54
59939;BME280;45801;51.810;19.444;2023-03-02T03:45:47;99877.89;;;0.72;60.33
59939;BME280;45801;51.810;19.444;2023-03-02T03:48:14;99884.49;;;0.72;60.44
59939;BME280;45801;51.810;19.444;2023-03-02T03:50:45;99880.48;;;0.72;60.16
59939;BME280;45801;51.810;19.444;2023-03-02T03:53:13;99877.63;;;0.71;59.99
59939;BME280;45801;51.810;19.444;2023-03-02T03:55:41;99878.79;;;0.70;59.93
59939;BME280;45801;51.810;19.444;2023-03-02T03:58:08;99880.83;;;0.70;59.99
59939;BME280;45801;51.810;19.444;2023-03-02T04:00:41;99877.77;;;0.71;59.84
59939;BME280;45801;51.810;19.444;2023-03-02T04:03:27;99876.11;;;0.69;60.00
59939;BME280;45801;51.810;19.444;2023-03-02T04:05:58;99878.41;;;0.66;60.61
59939;BME280;45801;51.810;19.444;2023-03-02T04:08:27;99877.73;;;0.61;60.67
59939;BME280;45801;51.810;19.444;2023-03-02T04:10:57;99878.70;;;0.60;60.10
59939;BME280;45801;51.810;19.444;2023-03-02T04:23:08;99867.11;;;0.61;60.29
59939;BME280;45801;51.810;19.444;2023-03-02T04:25:35;99871.05;;;0.59;60.28
59939;BME280;45801;51.810;19.444;2023-03-02T04:28:01;99864.83;;;0.57;60.25
59939;BME280;45801;51.810;19.444;2023-03-02T04:30:28;99863.97;;;0.57;60.05
59939;BME280;45801;51.810;19.444;2023-03-02T04:32:55;99866.49;;;0.58;60.09
59939;BME280;45801;51.810;19.444;2023-03-02T04:35:23;99868.13;;;0.58;60.20
59939;BME280;45801;51.810;19.444;2023-03-02T04:37:51;99865.42;;;0.56;60.25
59939;BME280;45801;51.810;19.444;2023-03-02T04:40:17;99862.71;;;0.55;59.77
59939;BME280;45801;51.810;19.444;2023-03-02T04:42:44;99871.38;;;0.55;59.73
59939;BME280;45801;51.810;19.444;2023-03-02T04:45:12;99872.77;;;0.56;59.75
59939;BME280;45801;51.810;19.444;2023-03-02T04:47:39;99874.70;;;0.54;59.68
59939;BME280;45801;51.810;19.444;2023-03-02T04:50:08;99873.08;;;0.51;59.73
59939;BME280;45801;51.810;19.444;2023-03-02T04:52:36;99874.69;;;0.50;59.84
59939;BME280;45801;51.810;19.444;2023-03-02T04:55:03;99875.17;;;0.50;59.72
59939;BME280;45801;51.810;19.444;2023-03-02T04:57:30;99876.43;;;0.48;59.52
59939;BME280;45801;51.810;19.444;2023-03-02T04:59:56;99874.02;;;0.46;59.74
59939;BME280;45801;51.810;19.444;2023-03-02T05:02:23;99874.36;;;0.45;59.92
59939;BME280;45801;51.810;19.444;2023-03-02T05:04:50;99870.87;;;0.44;60.13
59939;BME280;45801;51.810;19.444;2023-03-02T05:07:16;99870.83;;;0.44;60.08
59939;BME280;45801;51.810;19.444;2023-03-02T05:09:43;99873.98;;;0.42;59.87
59939;BME280;45801;51.810;19.444;2023-03-02T05:12:10;99876.58;;;0.41;59.99
59939;BME280;45801;51.810;19.444;2023-03-02T05:14:36;99877.55;;;0.40;59.64
59939;BME280;45801;51.810;19.444;2023-03-02T05:17:03;99884.97;;;0.40;59.59
59939;BME280;45801;51.810;19.444;2023-03-02T05:19:30;99890.06;;;0.39;60.06
59939;BME280;45801;51.810;19.444;2023-03-02T05:21:56;99897.37;;;0.36;60.20
59939;BME280;45801;51.810;19.444;2023-03-02T05:24:23;99901.39;;;0.33;60.18
59939;BME280;45801;51.810;19.444;2023-03-02T05:26:50;99903.86;;;0.30;59.77
59939;BME280;45801;51.810;19.444;2023-03-02T05:29:16;99903.75;;;0.29;60.00
59939;BME280;45801;51.810;19.444;2023-03-02T05:31:45;99905.85;;;0.28;60.42
59939;BME280;45801;51.810;19.444;2023-03-02T05:34:14;99907.70;;;0.29;60.13
59939;BME280;45801;51.810;19.444;2023-03-02T05:36:42;99905.02;;;0.31;60.21
59939;BME280;45801;51.810;19.444;2023-03-02T05:39:11;99901.36;;;0.34;60.51
59939;BME280;45801;51.810;19.444;2023-03-02T05:41:38;99898.57;;;0.38;60.75
59939;BME280;45801;51.810;19.444;2023-03-02T05:44:06;99898.99;;;0.44;60.68
59939;BME280;45801;51.810;19.444;2023-03-02T05:46:36;99900.52;;;0.50;60.88
59939;BME280;45801;51.810;19.444;2023-03-02T05:49:03;99901.11;;;0.54;61.59
59939;BME280;45801;51.810;19.444;2023-03-02T05:51:29;99904.21;;;0.58;61.95
59939;BME280;45801;51.810;19.444;2023-03-02T05:53:56;99904.55;;;0.62;61.59
59939;BME280;45801;51.810;19.444;2023-03-02T05:56:22;99901.04;;;0.65;61.72
59939;BME280;45801;51.810;19.444;2023-03-02T05:58:49;99899.36;;;0.69;61.21
59939;BME280;45801;51.810;19.444;2023-03-02T06:01:15;99903.11;;;0.74;61.36
59939;BME280;45801;51.810;19.444;2023-03-02T06:03:42;99907.64;;;0.78;61.44
59939;BME280;45801;51.810;19.444;2023-03-02T06:06:09;99910.33;;;0.83;61.65
59939;BME280;45801;51.810;19.444;2023-03-02T06:08:39;99918.67;;;0.90;61.63
59939;BME280;45801;51.810;19.444;2023-03-02T06:11:06;99920.25;;;0.94;61.67
59939;BME280;45801;51.810;19.444;2023-03-02T06:13:34;99920.23;;;0.99;61.52
59939;BME280;45801;51.810;19.444;2023-03-02T06:16:01;99922.35;;;1.05;61.44
59939;BME280;45801;51.810;19.444;2023-03-02T06:18:28;99918.14;;;1.10;61.37
59939;BME280;45801;51.810;19.444;2023-03-02T06:20:55;99920.64;;;1.17;61.40
59939;BME280;45801;51.810;19.444;2023-03-02T06:23:21;99921.30;;;1.22;61.18
59939;BME280;45801;51.810;19.444;2023-03-02T06:25:49;99923.67;;;1.28;61.68
59939;BME280;45801;51.810;19.444;2023-03-02T06:28:16;99923.23;;;1.30;61.34
59939;BME280;45801;51.810;19.444;2023-03-02T06:30:47;99926.54;;;1.33;61.48
59939;BME280;45801;51.810;19.444;2023-03-02T06:33:15;99925.97;;;1.38;61.40
59939;BME280;45801;51.810;19.444;2023-03-02T06:35:43;99924.27;;;1.44;61.72
59939;BME280;45801;51.810;19.444;2023-03-02T06:38:10;99920.65;;;1.50;61.87
59939;BME280;45801;51.810;19.444;2023-03-02T06:40:37;99923.63;;;1.56;62.19
59939;BME280;45801;51.810;19.444;2023-03-02T06:43:03;99924.43;;;1.63;62.31
59939;BME280;45801;51.810;19.444;2023-03-02T06:45:30;99924.53;;;1.70;62.10
59939;BME280;45801;51.810;19.444;2023-03-02T06:48:00;99926.64;;;1.76;61.86
59939;BME280;45801;51.810;19.444;2023-03-02T06:50:27;99930.14;;;1.83;61.37
59939;BME280;45801;51.810;19.444;2023-03-02T06:52:54;99931.48;;;1.88;61.53
59939;BME280;45801;51.810;19.444;2023-03-02T06:55:21;99930.44;;;1.94;61.72
59939;BME280;45801;51.810;19.444;2023-03-02T06:57:47;99928.27;;;2.01;61.70
59939;BME280;45801;51.810;19.444;2023-03-02T07:00:14;99930.39;;;2.07;61.40
59939;BME280;45801;51.810;19.444;2023-03-02T07:02:43;99932.80;;;2.11;61.57
59939;BME280;45801;51.810;19.444;2023-03-02T07:05:11;99932.77;;;2.17;61.74
59939;BME280;45801;51.810;19.444;2023-03-02T07:07:38;99933.41;;;2.20;61.59
59939;BME280;45801;51.810;19.444;2023-03-02T07:10:06;99934.81;;;2.22;61.65
59939;BME280;45801;51.810;19.444;2023-03-02T07:12:33;99937.08;;;2.24;61.83
59939;BME280;45801;51.810;19.444;2023-03-02T07:15:00;99934.04;;;2.29;62.06
59939;BME280;45801;51.810;19.444;2023-03-02T07:17:27;99933.80;;;2.34;62.20
59939;BME280;45801;51.810;19.444;2023-03-02T07:19:53;99935.25;;;2.39;62.41
59939;BME280;45801;51.810;19.444;2023-03-02T07:22:20;99934.73;;;2.43;62.26
59939;BME280;45801;51.810;19.444;2023-03-02T07:24:47;99935.05;;;2.47;61.91
59939;BME280;45801;51.810;19.444;2023-03-02T07:27:13;99933.67;;;2.51;62.18
59939;BME280;45801;51.810;19.444;2023-03-02T07:29:40;99933.05;;;2.56;62.42
59939;BME280;45801;51.810;19.444;2023-03-02T07:32:07;99929.37;;;2.61;62.23
59939;BME280;45801;51.810;19.444;2023-03-02T07:34:33;99928.52;;;2.63;62.05
59939;BME280;45801;51.810;19.444;2023-03-02T07:37:00;99928.85;;;2.68;61.93
59939;BME280;45801;51.810;19.444;2023-03-02T07:39:26;99928.09;;;2.73;61.98
59939;BME280;45801;51.810;19.444;2023-03-02T07:41:56;99922.59;;;2.77;61.87
59939;BME280;45801;51.810;19.444;2023-03-02T07:44:23;99924.15;;;2.81;62.58
59939;BME280;45801;51.810;19.444;2023-03-02T07:46:49;99922.25;;;2.88;62.39
59939;BME280;45801;51.810;19.444;2023-03-02T07:49:16;99916.70;;;2.93;62.12
59939;BME280;45801;51.810;19.444;2023-03-02T07:51:43;99917.45;;;3.00;62.15
59939;BME280;45801;51.810;19.444;2023-03-02T07:54:09;99919.83;;;3.06;61.83
59939;BME280;45801;51.810;19.444;2023-03-02T07:56:36;99914.15;;;3.09;62.29
59939;BME280;45801;51.810;19.444;2023-03-02T07:59:02;99913.01;;;3.11;62.50
59939;BME280;45801;51.810;19.444;2023-03-02T08:01:30;99914.04;;;3.13;62.63
59939;BME280;45801;51.810;19.444;2023-03-02T08:03:57;99914.44;;;3.18;62.65
59939;BME280;45801;51.810;19.444;2023-03-02T08:06:23;99912.98;;;3.26;63.00
59939;BME280;45801;51.810;19.444;2023-03-02T08:08:50;99910.63;;;3.33;62.88
59939;BME280;45801;51.810;19.444;2023-03-02T08:11:17;99911.21;;;3.38;62.72
59939;BME280;45801;51.810;19.444;2023-03-02T08:13:44;99909.21;;;3.41;62.66
59939;BME280;45801;51.810;19.444;2023-03-02T08:16:13;99907.73;;;3.46;62.69
59939;BME280;45801;51.810;19.444;2023-03-02T08:18:40;99903.93;;;3.55;63.16
59939;BME280;45801;51.810;19.444;2023-03-02T08:21:16;99904.44;;;3.66;63.03
59939;BME280;45801;51.810;19.444;2023-03-02T08:23:45;99902.66;;;3.74;62.53
59939;BME280;45801;51.810;19.444;2023-03-02T08:26:12;99898.96;;;3.82;62.50
59939;BME280;45801;51.810;19.444;2023-03-02T08:28:39;99897.42;;;3.88;62.48
59939;BME280;45801;51.810;19.444;2023-03-02T08:31:07;99900.90;;;3.95;62.87
59939;BME280;45801;51.810;19.444;2023-03-02T08:33:34;99900.00;;;4.01;62.71
59939;BME280;45801;51.810;19.444;2023-03-02T08:36:04;99897.90;;;4.05;62.44
59939;BME280;45801;51.810;19.444;2023-03-02T08:38:32;99899.77;;;4.09;62.49
59939;BME280;45801;51.810;19.444;2023-03-02T08:41:02;99897.34;;;4.16;63.01
59939;BME280;45801;51.810;19.444;2023-03-02T08:43:29;99894.42;;;4.20;63.00
59939;BME280;45801;51.810;19.444;2023-03-02T08:45:56;99893.42;;;4.25;62.82
59939;BME280;45801;51.810;19.444;2023-03-02T08:48:24;99889.96;;;4.28;63.08
59939;BME280;45801;51.810;19.444;2023-03-02T08:51:03;99890.14;;;4.21;63.34
59939;BME280;45801;51.810;19.444;2023-03-02T08:53:33;99885.11;;;4.25;62.88
59939;BME280;45801;51.810;19.444;2023-03-02T08:56:00;99884.86;;;4.33;62.72
59939;BME280;45801;51.810;19.444;2023-03-02T08:58:28;99882.30;;;4.40;62.72
59939;BME280;45801;51.810;19.444;2023-03-02T09:00:54;99873.81;;;4.50;62.74
59939;BME280;45801;51.810;19.444;2023-03-02T09:03:21;99875.22;;;4.59;62.29
59939;BME280;45801;51.810;19.444;2023-03-02T09:05:47;99877.09;;;4.68;62.62
59939;BME280;45801;51.810;19.444;2023-03-02T09:08:14;99874.02;;;4.73;62.64
59939;BME280;45801;51.810;19.444;2023-03-02T09:10:40;99874.31;;;4.76;62.50
59939;BME280;45801;51.810;19.444;2023-03-02T09:13:07;99869.71;;;4.85;62.12
59939;BME280;45801;51.810;19.444;2023-03-02T09:15:35;99868.92;;;4.98;62.19
59939;BME280;45801;51.810;19.444;2023-03-02T09:18:03;99868.86;;;5.08;62.20
59939;BME280;45801;51.810;19.444;2023-03-02T09:20:29;99869.25;;;5.13;61.89
59939;BME280;45801;51.810;19.444;2023-03-02T09:23:00;99869.08;;;5.13;62.02
59939;BME280;45801;51.810;19.444;2023-03-02T09:25:27;99869.40;;;5.13;61.77
59939;BME280;45801;51.810;19.444;2023-03-02T09:27:54;99865.17;;;5.17;61.97
59939;BME280;45801;51.810;19.444;2023-03-02T09:30:21;99864.67;;;5.17;61.81
59939;BME280;45801;51.810;19.444;2023-03-02T09:32:48;99859.39;;;5.16;62.12
59939;BME280;45801;51.810;19.444;2023-03-02T09:35:15;99862.16;;;5.23;62.32
59939;BME280;45801;51.810;19.444;2023-03-02T09:37:42;99862.63;;;5.32;62.17
59939;BME280;45801;51.810;19.444;2023-03-02T09:40:18;99860.83;;;5.36;61.85
59939;BME280;45801;51.810;19.444;2023-03-02T09:42:48;99859.30;;;5.41;62.14
59939;BME280;45801;51.810;19.444;2023-03-02T09:45:23;99858.95;;;5.48;62.02
59939;BME280;45801;51.810;19.444;2023-03-02T09:48:12;99859.13;;;5.57;61.84
59939;BME280;45801;51.810;19.444;2023-03-02T09:53:38;99859.02;;;5.58;61.48
59939;BME280;45801;51.810;19.444;2023-03-02T09:56:14;99857.76;;;5.65;61.47
59939;BME280;45801;51.810;19.444;2023-03-02T09:58:48;99858.77;;;5.69;61.17
59939;BME280;45801;51.810;19.444;2023-03-02T10:01:28;99864.61;;;5.66;61.18
59939;BME280;45801;51.810;19.444;2023-03-02T10:04:11;99862.69;;;5.68;61.17
59939;BME280;45801;51.810;19.444;2023-03-02T10:06:39;99862.64;;;5.77;61.41
59939;BME280;45801;51.810;19.444;2023-03-02T10:09:08;99856.09;;;5.82;61.46
59939;BME280;45801;51.810;19.444;2023-03-02T10:11:51;99855.11;;;5.89;61.52
59939;BME280;45801;51.810;19.444;2023-03-02T10:14:26;99854.69;;;5.95;60.89
59939;BME280;45801;51.810;19.444;2023-03-02T10:17:04;99855.92;;;5.99;60.85
59939;BME280;45801;51.810;19.444;2023-03-02T10:19:42;99851.42;;;6.05;60.75
59939;BME280;45801;51.810;19.444;2023-03-02T10:24:55;99858.16;;;6.14;60.75
59939;BME280;45801;51.810;19.444;2023-03-02T10:27:46;99858.00;;;6.09;60.22
59939;BME280;45801;51.810;19.444;2023-03-02T10:30:19;99854.66;;;6.09;60.47
59939;BME280;45801;51.810;19.444;2023-03-02T10:32:51;99847.04;;;6.07;60.49
59939;BME280;45801;51.810;19.444;2023-03-02T10:35:23;99847.90;;;6.04;60.86
59939;BME280;45801;51.810;19.444;2023-03-02T10:37:58;99848.48;;;5.98;60.68
59939;BME280;45801;51.810;19.444;2023-03-02T10:40:40;99848.55;;;5.96;60.44
59939;BME280;45801;51.810;19.444;2023-03-02T10:43:19;99840.13;;;5.97;60.64
59939;BME280;45801;51.810;19.444;2023-03-02T10:46:01;99838.80;;;5.99;60.78
59939;BME280;45801;51.810;19.444;2023-03-02T10:48:28;99835.80;;;6.05;60.41
59939;BME280;45801;51.810;19.444;2023-03-02T10:50:56;99833.09;;;6.09;59.94
59939;BME280;45801;51.810;19.444;2023-03-02T10:53:23;99832.27;;;6.04;60.26
59939;BME280;45801;51.810;19.444;2023-03-02T10:55:52;99829.29;;;5.99;60.30
59939;BME280;45801;51.810;19.444;2023-03-02T10:58:23;99826.87;;;5.97;60.44
59939;BME280;45801;51.810;19.444;2023-03-02T11:01:05;99828.60;;;6.07;60.54
59939;BME280;45801;51.810;19.444;2023-03-02T11:03:32;99832.60;;;6.24;60.01
59939;BME280;45801;51.810;19.444;2023-03-02T11:06:19;99830.45;;;6.36;59.89
59939;BME280;45801;51.810;19.444;2023-03-02T11:08:59;99828.81;;;6.45;59.69
59939;BME280;45801;51.810;19.444;2023-03-02T11:11:26;99825.55;;;6.50;59.47
59939;BME280;45801;51.810;19.444;2023-03-02T11:13:53;99825.41;;;6.51;59.03
59939;BME280;45801;51.810;19.444;2023-03-02T11:16:24;99827.91;;;6.42;58.80
59939;BME280;45801;51.810;19.444;2023-03-02T11:18:57;99823.02;;;6.42;59.08
59939;BME280;45801;51.810;19.444;2023-03-02T11:21:29;99818.91;;;6.43;59.33
59939;BME280;45801;51.810;19.444;2023-03-02T11:24:08;99812.11;;;6.45;59.44
59939;BME280;45801;51.810;19.444;2023-03-02T11:26:51;99813.42;;;6.46;59.26
59939;BME280;45801;51.810;19.444;2023-03-02T11:29:40;99805.66;;;6.47;59.11
59939;BME280;45801;51.810;19.444;2023-03-02T11:34:42;99800.84;;;6.25;59.10
59939;BME280;45801;51.810;19.444;2023-03-02T11:37:29;99801.50;;;6.25;59.24
59939;BME280;45801;51.810;19.444;2023-03-02T11:40:05;99797.98;;;6.29;59.30
59939;BME280;45801;51.810;19.444;2023-03-02T11:42:40;99791.03;;;6.34;59.03
59939;BME280;45801;51.810;19.444;2023-03-02T11:45:16;99792.02;;;6.26;59.41
59939;BME280;45801;51.810;19.444;2023-03-02T11:48:06;99795.30;;;6.20;59.53
59939;BME280;45801;51.810;19.444;2023-03-02T11:50:41;99793.09;;;6.24;59.63
59939;BME280;45801;51.810;19.444;2023-03-02T11:53:15;99793.52;;;6.27;59.48
59939;BME280;45801;51.810;19.444;2023-03-02T11:55:45;99789.06;;;6.31;59.44
59939;BME280;45801;51.810;19.444;2023-03-02T11:58:22;99787.63;;;6.38;59.47
59939;BME280;45801;51.810;19.444;2023-03-02T12:00:51;99785.65;;;6.40;59.52
59939;BME280;45801;51.810;19.444;2023-03-02T12:06:01;99786.23;;;6.41;59.25
59939;BME280;45801;51.810;19.444;2023-03-02T12:08:33;99781.39;;;6.43;59.13
59939;BME280;45801;51.810;19.444;2023-03-02T12:11:07;99780.34;;;6.35;59.13
59939;BME280;45801;51.810;19.444;2023-03-02T12:14:05;99787.86;;;6.34;59.37
59939;BME280;45801;51.810;19.444;2023-03-02T12:16:50;99783.73;;;6.29;59.31
59939;BME280;45801;51.810;19.444;2023-03-02T12:19:37;99775.43;;;6.32;59.65
59939;BME280;45801;51.810;19.444;2023-03-02T12:22:06;99772.14;;;6.41;59.79
59939;BME280;45801;51.810;19.444;2023-03-02T12:24:38;99769.30;;;6.45;59.53
59939;BME280;45801;51.810;19.444;2023-03-02T12:27:23;99768.63;;;6.40;59.51
59939;BME280;45801;51.810;19.444;2023-03-02T12:35:30;99764.08;;;6.22;60.14
59939;BME280;45801;51.810;19.444;2023-03-02T12:38:04;99760.34;;;6.20;59.98
59939;BME280;45801;51.810;19.444;2023-03-02T12:43:24;99759.07;;;6.20;60.54
59939;BME280;45801;51.810;19.444;2023-03-02T12:51:05;99755.52;;;6.11;61.04
59939;BME280;45801;51.810;19.444;2023-03-02T12:53:40;99754.95;;;6.16;60.75
59939;BME280;45801;51.810;19.444;2023-03-02T12:56:08;99748.43;;;6.19;60.51
59939;BME280;45801;51.810;19.444;2023-03-02T12:58:35;99745.09;;;6.21;60.57
59939;BME280;45801;51.810;19.444;2023-03-02T13:01:02;99744.77;;;6.29;60.71
59939;BME280;45801;51.810;19.444;2023-03-02T13:03:30;99743.92;;;6.37;60.20
59939;BME280;45801;51.810;19.444;2023-03-02T13:06:02;99739.97;;;6.43;59.83
59939;BME280;45801;51.810;19.444;2023-03-02T13:08:29;99735.08;;;6.46;59.71
59939;BME280;45801;51.810;19.444;2023-03-02T13:10:59;99734.39;;;6.48;59.91
59939;BME280;45801;51.810;19.444;2023-03-02T13:13:39;99730.95;;;6.51;59.56
59939;BME280;45801;51.810;19.444;2023-03-02T13:16:28;99736.16;;;6.46;59.72
59939;BME280;45801;51.810;19.444;2023-03-02T13:18:59;99728.32;;;6.41;59.96
59939;BME280;45801;51.810;19.444;2023-03-02T13:21:31;99727.36;;;6.37;59.68
59939;BME280;45801;51.810;19.444;2023-03-02T13:23:59;99727.16;;;6.31;60.23
59939;BME280;45801;51.810;19.444;2023-03-02T13:26:32;99726.98;;;6.31;60.21
59939;BME280;45801;51.810;19.444;2023-03-02T13:28:59;99725.55;;;6.33;60.17
59939;BME280;45801;51.810;19.444;2023-03-02T13:31:27;99720.77;;;6.32;60.38
59939;BME280;45801;51.810;19.444;2023-03-02T13:33:55;99718.00;;;6.32;60.30
59939;BME280;45801;51.810;19.444;2023-03-02T13:36:25;99719.05;;;6.30;61.02
59939;BME280;45801;51.810;19.444;2023-03-02T13:38:55;99716.23;;;6.16;61.42
59939;BME280;45801;51.810;19.444;2023-03-02T13:41:29;99713.71;;;6.10;61.55
59939;BME280;45801;51.810;19.444;2023-03-02T13:43:58;99709.25;;;6.03;62.35
59939;BME280;45801;51.810;19.444;2023-03-02T13:46:36;99709.60;;;5.83;62.99
59939;BME280;45801;51.810;19.444;2023-03-02T13:49:05;99710.92;;;5.77;63.34
59939;BME280;45801;51.810;19.444;2023-03-02T13:51:35;99711.20;;;5.76;63.50
59939;BME280;45801;51.810;19.444;2023-03-02T13:54:05;99704.72;;;5.78;63.19
59939;BME280;45801;51.810;19.444;2023-03-02T13:56:38;99699.73;;;5.87;63.08
59939;BME280;45801;51.810;19.444;2023-03-02T13:59:13;99697.05;;;5.96;62.50
59939;BME280;45801;51.810;19.444;2023-03-02T14:01:40;99693.81;;;5.99;62.28
59939;BME280;45801;51.810;19.444;2023-03-02T14:04:14;99689.33;;;5.99;62.39